Time;durP1;ratioP1;P1;durP2;ratioP2;P2;SDS_P1;SDS_P2;PMS_P1;PMS_P2;Temp;Humidity;BMP_temperature;BMP_pressure;BME280_temperature;BME280_humidity;BME280_pressure;Samples;Min_cycle;Max_cycle;Signal;HPM_P1;HPM_P2
2023/02/15 00:08:07;;;;;;;12.05;9.85;;;9.30;62.60;;;;;;20921811;28;20136;-68
2023/02/15 00:18:09;;;;;;;11.77;9.68;;;9.20;62.90;;;;;;20922860;28;20525;-66
2023/02/15 00:28:11;;;;;;;12.38;9.50;;;9.30;62.80;;;;;;20920347;28;20060;-65
2023/02/15 00:38:12;;;;;;;10.77;8.68;;;9.30;62.60;;;;;;20918606;28;20603;-66
2023/02/15 00:48:15;;;;;;;14.45;9.68;;;9.20;62.50;;;;;;20919465;28;20417;-62
2023/02/15 00:58:17;;;;;;;11.15;9.48;;;9.20;62.70;;;;;;20918655;28;20405;-64
2023/02/15 01:08:18;;;;;;;11.38;9.50;;;9.20;62.60;;;;;;20916250;28;20053;-65
2023/02/15 01:18:22;;;;;;;10.90;8.75;;;9.20;62.50;;;;;;20916582;28;20092;-62
2023/02/15 01:28:23;;;;;;;12.07;8.60;;;9.10;62.20;;;;;;20916121;28;20057;-64
2023/02/15 01:38:25;;;;;;;13.65;8.73;;;9.00;62.70;;;;;;20914544;28;20056;-62
2023/02/15 01:48:27;;;;;;;10.98;8.80;;;9.00;62.40;;;;;;20917137;28;20489;-62
2023/02/15 01:58:30;;;;;;;12.23;8.27;;;9.00;62.50;;;;;;20915245;28;20441;-62
2023/02/15 02:08:32;;;;;;;11.25;8.68;;;9.00;62.40;;;;;;20914868;28;20375;-66
2023/02/15 02:19:07;;;;;;;10.35;8.52;;;9.00;62.40;;;;;;20916888;28;20049;-63
2023/02/15 02:29:09;;;;;;;11.52;8.68;;;8.90;62.70;;;;;;20915562;28;20053;-62
2023/02/15 02:39:24;;;;;;;14.27;9.63;;;8.90;62.90;;;;;;20913708;28;20091;-66
2023/02/15 02:49:38;;;;;;;12.93;9.43;;;9.00;62.70;;;;;;20914874;28;20072;-67
2023/02/15 02:59:47;;;;;;;14.43;11.05;;;8.90;62.70;;;;;;20912814;28;20059;-65
2023/02/15 03:09:53;;;;;;;11.68;9.23;;;8.90;62.90;;;;;;20912730;28;20154;-65
2023/02/15 03:20:00;;;;;;;14.00;9.05;;;9.00;62.90;;;;;;20911417;28;20060;-63
2023/02/15 03:30:10;;;;;;;14.05;9.23;;;9.00;62.90;;;;;;20914944;28;20057;-64
2023/02/15 04:02:10;;;;;;;10.67;8.63;;;9.00;63.00;;;;;;20923711;28;20088;-64
2023/02/15 04:12:05;;;;;;;11.45;9.23;;;9.00;62.90;;;;;;20920866;28;20045;-66
2023/02/15 04:32:29;;;;;;;9.57;8.27;;;9.00;62.90;;;;;;20921270;28;20092;-65
2023/02/15 04:42:31;;;;;;;12.73;8.85;;;9.00;63.00;;;;;;20920306;28;20458;-65
2023/02/15 04:52:32;;;;;;;13.07;8.85;;;9.00;63.10;;;;;;20918655;28;20071;-64
2023/02/15 05:02:34;;;;;;;11.95;9.00;;;8.90;63.30;;;;;;20919346;28;20083;-63
2023/02/15 05:12:35;;;;;;;12.48;9.73;;;8.90;63.10;;;;;;20918293;28;20408;-62
2023/02/15 05:22:37;;;;;;;9.85;8.65;;;8.90;63.10;;;;;;20915603;28;20045;-63
2023/02/15 05:32:39;;;;;;;14.52;9.52;;;8.90;63.00;;;;;;20914826;28;20049;-62
2023/02/15 05:42:41;;;;;;;13.70;9.15;;;8.80;63.10;;;;;;20916236;28;20132;-65
2023/02/15 05:52:42;;;;;;;12.32;8.93;;;8.90;63.00;;;;;;20914839;28;20049;-62
2023/02/15 06:02:44;;;;;;;10.43;8.75;;;8.80;63.10;;;;;;20914937;28;20048;-68
2023/02/15 06:12:45;;;;;;;12.95;9.18;;;8.80;63.30;;;;;;20912569;28;20091;-65
2023/02/15 06:22:48;;;;;;;11.90;8.88;;;8.80;63.20;;;;;;20913081;28;20057;-62
2023/02/15 06:32:50;;;;;;;11.20;8.98;;;8.80;63.30;;;;;;20912425;28;20052;-64
2023/02/15 06:42:52;;;;;;;14.23;9.30;;;8.80;63.30;;;;;;20915416;28;20454;-66
2023/02/15 06:52:57;;;;;;;11.38;9.07;;;8.70;63.40;;;;;;20911308;28;20103;-62
2023/02/15 07:02:58;;;;;;;;;;;8.70;63.60;;;;;;20916022;28;20049;-63
2023/02/15 07:13:00;;;;;;;12.70;8.80;;;8.70;63.30;;;;;;20925949;28;20022;-61
2023/02/15 07:23:04;;;;;;;12.05;8.68;;;8.70;63.70;;;;;;20926897;28;20466;-63
2023/02/15 07:33:24;;;;;;;14.00;8.73;;;8.70;63.60;;;;;;20923916;28;20068;-62
2023/02/15 07:43:26;;;;;;;11.88;9.02;;;8.70;63.60;;;;;;20926299;28;20174;-66
2023/02/15 07:53:28;;;;;;;12.55;8.13;;;8.70;63.60;;;;;;20923781;28;20064;-66
2023/02/15 08:03:30;;;;;;;10.60;7.65;;;8.70;63.40;;;;;;20923130;28;20135;-65
2023/02/15 08:13:31;;;;;;;15.02;8.93;;;8.80;63.30;;;;;;20921604;28;20473;-65
2023/02/15 08:23:33;;;;;;;13.93;9.25;;;8.80;63.40;;;;;;20921610;28;20053;-63
2023/02/15 08:33:36;;;;;;;12.07;9.13;;;8.90;63.40;;;;;;20920238;28;20414;-64
2023/02/15 08:43:38;;;;;;;13.60;8.82;;;9.10;62.60;;;;;;20919691;28;20044;-64
2023/02/15 08:53:42;;;;;;;11.30;7.57;;;9.20;62.30;;;;;;20920345;28;20405;-65
2023/02/15 09:03:45;;;;;;;12.18;7.68;;;9.40;61.80;;;;;;20918136;28;20087;-64
2023/02/15 09:13:47;;;;;;;11.13;7.30;;;9.60;61.10;;;;;;20919080;28;20057;-65
2023/02/15 09:23:50;;;;;;;7.78;5.32;;;9.70;60.60;;;;;;20917489;28;20140;-63
2023/02/15 09:33:53;;;;;;;8.53;5.67;;;9.70;60.10;;;;;;20915418;28;20053;-67
2023/02/15 09:44:25;;;;;;;8.60;5.90;;;9.80;59.30;;;;;;20916272;28;20199;-68
2023/02/15 09:55:00;;;;;;;11.65;5.72;;;10.00;59.00;;;;;;20922900;28;20115;-74
2023/02/15 10:05:12;;;;;;;11.48;7.10;;;10.40;57.90;;;;;;20793920;28;20187;-74
2023/02/15 10:15:17;;;;;;;10.48;6.07;;;11.00;57.50;;;;;;20754767;28;20060;-58
2023/02/15 10:25:36;;;;;;;9.13;5.47;;;11.10;57.10;;;;;;20741716;28;20161;-56
2023/02/15 10:35:58;;;;;;;11.82;6.45;;;11.60;56.30;;;;;;20808342;28;20561;-55
2023/02/15 10:46:29;;;;;;;9.82;4.93;;;12.10;54.80;;;;;;20940337;28;20186;-60
2023/02/15 10:56:34;;;;;;;7.47;5.82;;;12.30;51.70;;;;;;20940368;28;20424;-55
2023/02/15 11:06:40;;;;;;;16.03;6.60;;;12.10;50.60;;;;;;20942485;28;20109;-63
2023/02/15 11:16:47;;;;;;;12.07;6.65;;;11.60;53.50;;;;;;20939605;28;20098;-59
2023/02/15 11:26:59;;;;;;;13.85;7.68;;;11.70;51.40;;;;;;20941851;28;20052;-72
2023/02/15 11:37:08;;;;;;;10.23;5.95;;;12.00;51.10;;;;;;20938599;28;20045;-56
2023/02/15 11:47:13;;;;;;;15.93;8.00;;;12.00;51.00;;;;;;20938521;28;20049;-67
2023/02/15 11:57:31;;;;;;;8.57;5.57;;;12.30;49.70;;;;;;20926065;28;20451;-64
2023/02/15 12:07:47;;;;;;;10.23;5.95;;;12.30;49.30;;;;;;20927493;28;20049;-64
2023/02/15 12:17:54;;;;;;;10.45;6.15;;;12.80;52.20;;;;;;20926445;28;20060;-56
2023/02/15 12:27:56;;;;;;;11.40;6.43;;;12.90;47.20;;;;;;20921536;28;20055;-56
2023/02/15 12:38:22;;;;;;;11.00;6.10;;;12.90;47.40;;;;;;20919487;28;20056;-55
2023/02/15 12:48:23;;;;;;;9.75;6.28;;;12.90;47.10;;;;;;20921720;28;20059;-57
2023/02/15 12:58:27;;;;;;;10.00;6.07;;;12.90;46.40;;;;;;20922386;28;20052;-66
2023/02/15 13:08:33;;;;;;;10.53;6.77;;;13.10;46.10;;;;;;20920247;28;20409;-57
2023/02/15 13:18:36;;;;;;;8.05;6.18;;;13.00;46.40;;;;;;20920573;28;20397;-58
2023/02/15 13:28:46;;;;;;;11.30;6.53;;;13.20;45.80;;;;;;20917126;28;20574;-58
2023/02/15 13:39:11;;;;;;;9.93;7.28;;;13.20;45.70;;;;;;20917078;28;20122;-61
2023/02/15 13:49:48;;;;;;;7.90;6.32;;;13.20;46.00;;;;;;20916273;28;20056;-56
2023/02/15 14:00:08;;;;;;;9.32;6.60;;;13.30;45.70;;;;;;20915772;28;20060;-60
2023/02/15 14:10:34;;;;;;;10.73;6.15;;;13.40;45.50;;;;;;20916114;28;20083;-59
2023/02/15 14:20:45;;;;;;;10.82;6.93;;;13.50;45.00;;;;;;20914015;28;20130;-54
2023/02/15 14:30:49;;;;;;;11.75;5.88;;;13.60;45.00;;;;;;20912393;28;20041;-55
2023/02/15 14:41:03;;;;;;;8.57;6.63;;;13.70;44.90;;;;;;20912477;28;20055;-54
2023/02/15 14:51:04;;;;;;;9.55;6.78;;;13.80;44.10;;;;;;20914029;28;20356;-57
2023/02/15 15:01:10;;;;;;;9.63;6.10;;;14.00;43.90;;;;;;20935692;28;20113;-55
2023/02/15 15:11:37;;;;;;;10.10;5.65;;;13.90;44.10;;;;;;20919358;28;20128;-67
2023/02/15 15:21:48;;;;;;;12.98;7.38;;;13.80;44.00;;;;;;20908026;28;20052;-70
2023/02/15 15:31:56;;;;;;;10.80;6.80;;;13.90;44.10;;;;;;20927696;28;20409;-61
2023/02/15 15:42:22;;;;;;;8.25;6.55;;;13.80;44.30;;;;;;20932047;28;20514;-58
2023/02/15 15:52:25;;;;;;;13.50;6.75;;;13.80;44.20;;;;;;20926582;28;20123;-69
2023/02/15 16:02:27;;;;;;;9.32;5.57;;;13.90;43.90;;;;;;20923966;28;20440;-55
2023/02/15 16:12:33;;;;;;;14.43;5.68;;;13.90;43.40;;;;;;20924262;28;20045;-58
2023/02/15 16:22:35;;;;;;;7.35;4.75;;;13.80;43.70;;;;;;20921873;28;20088;-58
2023/02/15 16:32:37;;;;;;;10.32;4.60;;;13.80;43.70;;;;;;20921529;28;20052;-55
2023/02/15 16:42:40;;;;;;;9.93;5.72;;;13.80;43.80;;;;;;20920569;28;20049;-65
2023/02/15 16:52:43;;;;;;;7.40;4.65;;;13.80;43.80;;;;;;20921110;28;20474;-60
2023/02/15 17:03:05;;;;;;;8.30;4.50;;;14.90;45.00;;;;;;20918485;28;20037;-60
2023/02/15 17:13:15;;;;;;;8.50;5.10;;;15.50;43.70;;;;;;20918975;28;20041;-61
2023/02/15 17:23:44;;;;;;;17.30;5.57;;;15.10;41.70;;;;;;20917908;28;20199;-57
2023/02/15 17:33:46;;;;;;;7.28;4.50;;;14.30;42.70;;;;;;20916161;28;20051;-59
2023/02/15 17:43:48;;;;;;;12.70;4.80;;;13.80;44.10;;;;;;20917189;28;20049;-68
2023/02/15 18:14:34;;;;;;;18.10;8.50;;;13.40;46.20;;;;;;20843652;28;20497;-61
2023/02/15 18:24:35;;;;;;;9.27;5.70;;;13.50;53.10;;;;;;20832056;28;20441;-70
2023/02/15 18:34:40;;;;;;;10.45;7.70;;;13.50;45.50;;;;;;20830485;28;20524;-63
2023/02/15 18:44:41;;;;;;;21.95;10.15;;;13.20;45.60;;;;;;20829743;28;20056;-63
2023/02/15 18:54:45;;;;;;;10.70;6.15;;;13.00;46.70;;;;;;20830945;28;20406;-56
2023/02/15 19:04:46;;;;;;;14.45;5.88;;;12.80;49.60;;;;;;20843694;28;20050;-59
2023/02/15 19:14:50;;;;;;;11.32;5.50;;;12.50;49.80;;;;;;20845284;28;20053;-60
2023/02/15 19:24:52;;;;;;;10.52;5.10;;;12.40;51.90;;;;;;20844713;28;20080;-66
2023/02/15 19:34:54;;;;;;;9.45;5.40;;;12.10;51.40;;;;;;20843846;28;20056;-57
2023/02/15 19:44:55;;;;;;;12.57;6.43;;;11.80;52.20;;;;;;20843820;28;20059;-57
2023/02/15 19:54:57;;;;;;;8.93;5.80;;;11.70;52.90;;;;;;20843534;28;20049;-65
2023/02/15 20:04:59;;;;;;;11.63;6.00;;;11.40;53.70;;;;;;20842489;28;20500;-59
2023/02/15 20:15:01;;;;;;;8.60;5.68;;;11.20;54.50;;;;;;20840987;28;20053;-64
2023/02/15 20:25:02;;;;;;;12.43;5.70;;;11.00;54.90;;;;;;20842001;28;20056;-55
2023/02/15 20:35:04;;;;;;;8.48;5.00;;;10.80;55.40;;;;;;20838869;28;20049;-64
2023/02/15 20:45:30;;;;;;;9.07;5.22;;;10.70;55.90;;;;;;20841000;28;20145;-58
2023/02/15 20:55:32;;;;;;;10.90;5.68;;;10.50;56.40;;;;;;20837840;28;20057;-54
2023/02/15 21:05:34;;;;;;;11.18;6.13;;;10.40;56.60;;;;;;20836888;28;20045;-61
2023/02/15 21:15:40;;;;;;;13.18;8.25;;;10.50;56.50;;;;;;20837969;28;20072;-65
2023/02/15 21:25:42;;;;;;;12.75;6.90;;;10.30;57.00;;;;;;20834916;28;20045;-62
2023/02/15 21:35:47;;;;;;;11.27;5.97;;;10.20;57.20;;;;;;20835099;28;20401;-63
2023/02/15 21:56:18;;;;;;;14.35;8.02;;;10.10;57.70;;;;;;20832772;28;20095;-62
2023/02/15 22:06:20;;;;;;;13.00;7.78;;;10.10;58.00;;;;;;20833426;28;20470;-60
2023/02/15 22:16:22;;;;;;;15.65;9.05;;;9.90;58.40;;;;;;20832772;28;20053;-62
2023/02/15 22:26:24;;;;;;;19.05;8.90;;;9.80;58.80;;;;;;20831071;28;20132;-58
2023/02/15 22:36:28;;;;;;;15.20;9.13;;;9.70;59.20;;;;;;20829829;28;20049;-63
2023/02/15 22:46:29;;;;;;;14.70;6.95;;;9.70;59.40;;;;;;20831145;28;20042;-56
2023/02/15 22:56:37;;;;;;;18.63;10.07;;;9.50;60.00;;;;;;20829303;28;20058;-56
2023/02/15 23:06:38;;;;;;;9.75;6.53;;;9.30;60.20;;;;;;20830384;28;20131;-59
2023/02/15 23:16:39;;;;;;;12.20;6.90;;;9.10;60.80;;;;;;20831523;28;20060;-59
2023/02/15 23:26:41;;;;;;;14.13;7.68;;;8.90;61.10;;;;;;20832463;28;20049;-64
2023/02/15 23:36:44;;;;;;;11.70;7.05;;;8.70;61.40;;;;;;20829756;28;20140;-64
2023/02/15 23:46:47;;;;;;;11.52;7.40;;;8.70;61.70;;;;;;20833465;28;20077;-64
2023/02/15 23:56:53;;;;;;;13.00;7.18;;;8.60;62.00;;;;;;20843156;28;20472;-63
